Time;durP1;ratioP1;P1;durP2;ratioP2;P2;SDS_P1;SDS_P2;PMS_P1;PMS_P2;Temp;Humidity;BMP_temperature;BMP_pressure;BME280_temperature;BME280_humidity;BME280_pressure;Samples;Min_cycle;Max_cycle;Signal;HPM_P1;HPM_P2
2021/08/15 00:00:37;;;;;;;;;16.67;13.00;;;;;24.20;44.90;101417.41;5060307;28;45534;-91
2021/08/15 00:03:03;;;;;;;;;21.00;13.33;;;;;24.20;45.11;101428.16;5060009;28;45422;-90
2021/08/15 00:05:29;;;;;;;;;15.00;13.00;;;;;24.13;45.17;101415.84;5059514;28;45389;-90
2021/08/15 00:07:54;;;;;;;;;15.67;14.00;;;;;24.12;45.56;101411.38;5059669;28;45793;-91
2021/08/15 00:10:20;;;;;;;;;18.00;16.67;;;;;24.08;45.71;101401.66;5061257;28;45429;-90
2021/08/15 00:12:46;;;;;;;;;14.67;13.00;;;;;24.09;45.42;101407.00;5061023;28;45350;-92
2021/08/15 00:15:14;;;;;;;;;14.33;11.67;;;;;24.12;46.28;101409.59;5060666;28;45231;-89
2021/08/15 00:17:40;;;;;;;;;15.00;13.00;;;;;24.09;45.86;101404.31;5060143;28;45300;-91
2021/08/15 00:20:08;;;;;;;;;17.33;15.00;;;;;24.08;46.59;101393.59;5060684;28;46417;-93
2021/08/15 00:22:37;;;;;;;;;15.33;13.00;;;;;24.05;46.88;101398.13;5060712;28;45546;-88
2021/08/15 00:25:02;;;;;;;;;14.00;11.67;;;;;24.03;46.68;101391.94;5060799;28;45174;-92
2021/08/15 00:27:28;;;;;;;;;14.33;13.00;;;;;24.03;47.20;101399.09;5061485;28;45462;-89
2021/08/15 00:29:53;;;;;;;;;13.67;12.00;;;;;24.00;47.24;101389.34;5060726;28;46376;-90
2021/08/15 00:32:19;;;;;;;;;16.67;14.33;;;;;24.04;47.36;101395.50;5060197;28;45283;-91
2021/08/15 00:34:44;;;;;;;;;15.33;14.00;;;;;24.01;47.41;101395.56;5060494;28;45765;-91
2021/08/15 00:37:09;;;;;;;;;11.33;11.33;;;;;23.94;47.45;101379.63;5060497;28;45208;-91
2021/08/15 00:39:35;;;;;;;;;19.00;16.00;;;;;23.99;47.40;101392.06;5060434;28;46546;-90
2021/08/15 00:42:00;;;;;;;;;15.00;14.33;;;;;23.91;47.11;101378.84;5060527;28;45306;-92
2021/08/15 00:44:26;;;;;;;;;16.67;13.33;;;;;23.88;47.82;101370.91;5062266;28;45422;-91
2021/08/15 00:46:51;;;;;;;;;14.67;12.00;;;;;23.91;47.45;101379.75;5060339;28;45374;-91
2021/08/15 00:49:17;;;;;;;;;14.33;13.00;;;;;23.95;47.20;101399.31;5059794;28;45488;-89
2021/08/15 00:51:42;;;;;;;;;15.67;13.33;;;;;23.94;47.38;101390.38;5062692;28;45237;-88
2021/08/15 00:54:07;;;;;;;;;18.00;13.67;;;;;23.91;47.66;101381.53;5063334;28;45229;-91
2021/08/15 00:56:33;;;;;;;;;14.00;12.33;;;;;23.94;47.79;101392.22;5064322;28;45284;-89
2021/08/15 00:59:04;;;;;;;;;16.67;14.33;;;;;23.91;47.40;101386.91;5060565;28;45461;-91
2021/08/15 01:01:32;;;;;;;;;15.33;13.00;;;;;23.89;48.00;101386.97;5058730;28;45334;-90
2021/08/15 01:03:57;;;;;;;;;21.33;16.67;;;;;23.86;47.52;101376.31;5059303;28;45299;-92
2021/08/15 01:06:23;;;;;;;;;13.00;12.67;;;;;23.86;47.55;101381.66;5060159;28;45278;-90
2021/08/15 01:08:48;;;;;;;;;20.33;14.33;;;;;23.80;47.91;101372.00;5057692;28;47160;-90
2021/08/15 01:11:13;;;;;;;;;16.00;14.33;;;;;23.80;48.07;101377.38;5059268;28;45450;-90
2021/08/15 01:13:40;;;;;;;;;12.67;12.00;;;;;23.70;47.77;101370.50;5061001;28;45417;-92
2021/08/15 01:16:06;;;;;;;;;13.33;13.00;;;;;23.75;48.18;101379.31;5062808;28;45380;-90
2021/08/15 01:18:35;;;;;;;;;14.33;13.00;;;;;23.73;48.09;101374.91;5062949;28;46313;-91
2021/08/15 01:21:07;;;;;;;;;13.00;12.00;;;;;23.75;48.29;101378.44;5060758;28;45375;-91
2021/08/15 01:23:34;;;;;;;;;18.00;12.67;;;;;23.73;47.38;101374.91;5059501;28;45192;-91
2021/08/15 01:26:01;;;;;;;;;18.00;15.33;;;;;23.69;47.86;101364.25;5058886;28;45249;-92
2021/08/15 01:28:27;;;;;;;;;13.00;13.00;;;;;23.56;48.08;101349.41;5059900;28;46582;-92
2021/08/15 01:30:53;;;;;;;;;16.00;15.00;;;;;23.64;47.75;101365.28;5060307;28;45358;-91
2021/08/15 01:33:34;;;;;;;;;16.33;14.00;;;;;23.62;48.50;101357.31;5059968;28;45381;-92
2021/08/15 01:36:02;;;;;;;;;14.33;13.33;;;;;23.60;48.39;101368.06;5060923;28;45264;-90
2021/08/15 01:38:30;;;;;;;;;16.00;13.67;;;;;23.59;48.10;101365.41;5061211;28;45393;-91
2021/08/15 01:40:56;;;;;;;;;16.67;14.33;;;;;23.50;48.67;101353.13;5059536;28;45378;-90
2021/08/15 01:43:23;;;;;;;;;17.00;14.00;;;;;23.55;48.50;101358.38;5058760;28;45367;-90
2021/08/15 01:45:50;;;;;;;;;14.00;12.67;;;;;23.54;48.18;101359.31;5057502;28;45565;-92
2021/08/15 01:48:16;;;;;;;;;15.00;11.33;;;;;23.51;48.51;101359.38;5058375;28;45524;-91
2021/08/15 01:50:41;;;;;;;;;14.00;12.00;;;;;23.44;48.03;101345.22;5058362;28;45399;-89
2021/08/15 01:53:11;;;;;;;;;13.33;12.33;;;;;23.36;48.63;101334.69;5058189;28;45318;-91
2021/08/15 01:55:39;;;;;;;;;15.00;13.00;;;;;23.43;48.65;101347.03;5058025;28;45288;-91
2021/08/15 01:58:05;;;;;;;;;15.00;15.00;;;;;23.37;48.66;101341.84;5058272;28;46266;-91
2021/08/15 02:00:31;;;;;;;;;16.33;14.00;;;;;23.41;49.09;101345.31;5062547;28;45253;-88
2021/08/15 02:02:56;;;;;;;;;17.00;15.33;;;;;23.33;48.29;101332.97;5069598;28;45279;-90
2021/08/15 02:05:21;;;;;;;;;17.00;15.00;;;;;23.36;49.30;101342.75;5070093;28;44775;-89
2021/08/15 02:07:47;;;;;;;;;17.00;14.67;;;;;23.34;49.24;101341.91;5075203;28;46010;-86
2021/08/15 02:10:14;;;;;;;;;15.00;13.00;;;;;23.32;49.45;101338.38;5076949;28;45300;-88
2021/08/15 02:12:39;;;;;;;;;14.33;13.00;;;;;23.27;49.25;101341.19;5073521;28;45354;-86
2021/08/15 02:15:06;;;;;;;;;16.67;13.33;;;;;23.29;49.76;101343.84;5076257;28;45361;-91
2021/08/15 02:17:32;;;;;;;;;14.67;14.00;;;;;23.22;49.44;101327.03;5064823;28;45399;-91
2021/08/15 02:19:57;;;;;;;;;16.67;15.00;;;;;23.24;49.53;101333.25;5069690;28;45397;-90
2021/08/15 02:22:23;;;;;;;;;10.00;10.00;;;;;23.16;50.10;101327.19;5076213;28;45378;-91
2021/08/15 02:24:48;;;;;;;;;16.33;13.33;;;;;23.09;49.98;101316.63;5077368;28;44713;-91
2021/08/15 02:27:14;;;;;;;;;15.67;11.00;;;;;23.16;49.87;101327.19;5077414;28;46100;-89
2021/08/15 02:29:39;;;;;;;;;14.33;12.67;;;;;23.12;49.89;101316.53;5078304;28;45267;-89
2021/08/15 02:32:05;;;;;;;;;12.33;12.00;;;;;23.08;49.95;101309.50;5079087;28;44760;-90
2021/08/15 02:34:30;;;;;;;;;13.33;12.00;;;;;23.07;50.14;101318.47;5070529;28;45146;-91
2021/08/15 02:36:56;;;;;;;;;13.67;11.00;;;;;23.06;50.22;101316.69;5060885;28;47331;-91
2021/08/15 02:39:21;;;;;;;;;14.67;13.00;;;;;22.99;50.61;101307.94;5063383;28;45377;-91
2021/08/15 02:41:47;;;;;;;;;16.00;12.00;;;;;22.96;50.43;101310.69;5062474;28;45321;-92
2021/08/15 02:44:12;;;;;;;;;14.00;12.67;;;;;23.00;50.75;101306.13;5063018;28;45303;-91
2021/08/15 02:46:37;;;;;;;;;13.67;12.33;;;;;22.98;50.81;101311.53;5062261;28;45399;-92
2021/08/15 02:49:04;;;;;;;;;13.00;10.67;;;;;22.96;50.88;101299.09;5061733;28;45295;-90
2021/08/15 02:51:30;;;;;;;;;12.33;11.00;;;;;22.94;50.50;101300.94;5060364;28;45271;-90
2021/08/15 02:53:56;;;;;;;;;16.00;11.00;;;;;22.89;50.95;101288.53;5063059;28;45228;-92
2021/08/15 02:56:21;;;;;;;;;12.67;11.67;;;;;22.86;50.53;101287.72;5062312;28;45224;-90
2021/08/15 02:58:47;;;;;;;;;14.33;10.67;;;;;22.89;50.53;101299.25;5062769;28;45259;-90
2021/08/15 03:01:12;;;;;;;;;13.00;13.00;;;;;22.85;50.90;101291.31;5061149;28;45204;-91
2021/08/15 03:03:38;;;;;;;;;13.00;13.00;;;;;22.79;50.67;101284.31;5063837;28;45384;-92
2021/08/15 03:06:03;;;;;;;;;12.00;11.33;;;;;22.84;50.83;101286.91;5062216;28;45371;-91
2021/08/15 03:08:28;;;;;;;;;11.00;11.00;;;;;22.74;50.83;101276.41;5062814;28;45311;-89
2021/08/15 03:10:54;;;;;;;;;14.00;11.67;;;;;22.73;51.22;101273.75;5061889;28;45600;-89
2021/08/15 03:13:19;;;;;;;;;16.33;13.00;;;;;22.69;50.97;101275.66;5062972;28;45489;-92
2021/08/15 03:15:45;;;;;;;;;12.33;11.00;;;;;22.67;51.14;101272.13;5064435;28;45144;-91
2021/08/15 03:18:14;;;;;;;;;13.33;12.33;;;;;22.65;51.33;101263.22;5062883;28;45504;-91
2021/08/15 03:20:39;;;;;;;;;12.67;12.67;;;;;22.59;51.42;101252.66;5063637;28;45406;-92
2021/08/15 03:23:04;;;;;;;;;18.00;12.33;;;;;22.66;51.41;101265.00;5060811;28;45622;-90
2021/08/15 03:25:30;;;;;;;;;13.67;12.00;;;;;22.62;51.83;101257.91;5061994;28;46151;-90
2021/08/15 03:27:55;;;;;;;;;13.00;12.67;;;;;22.63;51.53;101265.06;5062097;28;45257;-91
2021/08/15 03:30:21;;;;;;;;;11.33;11.33;;;;;22.63;51.69;101273.09;5061855;28;45337;-90
2021/08/15 03:32:46;;;;;;;;;14.67;11.33;;;;;22.60;51.54;101265.09;5061084;28;45295;-91
2021/08/15 03:35:11;;;;;;;;;18.00;15.67;;;;;22.62;51.70;101268.63;5062495;28;45520;-92
2021/08/15 03:37:37;;;;;;;;;13.00;13.00;;;;;22.60;51.72;101275.81;5065046;28;45404;-89
2021/08/15 03:40:03;;;;;;;;;14.67;11.33;;;;;22.56;52.33;101270.56;5062294;28;45168;-89
2021/08/15 03:42:28;;;;;;;;;15.33;11.33;;;;;22.48;51.87;101264.50;5062473;28;45307;-91
2021/08/15 03:44:54;;;;;;;;;20.33;13.33;;;;;22.47;52.21;101262.72;5059712;28;46953;-88
2021/08/15 03:47:19;;;;;;;;;15.67;13.00;;;;;22.52;52.19;101276.91;5061637;28;45466;-92
2021/08/15 03:49:44;;;;;;;;;14.67;12.67;;;;;22.53;52.00;101275.97;5061572;28;45259;-91
2021/08/15 03:52:10;;;;;;;;;13.33;13.33;;;;;22.50;52.13;101270.72;5061962;28;45167;-91
2021/08/15 03:54:35;;;;;;;;;15.67;13.00;;;;;22.42;52.22;101259.31;5061351;28;46452;-88
2021/08/15 03:57:01;;;;;;;;;19.00;13.00;;;;;22.43;52.35;101269.09;5061331;28;45216;-91
2021/08/15 03:59:26;;;;;;;;;16.00;13.00;;;;;22.37;52.65;101251.38;5061411;28;45395;-89
2021/08/15 04:01:51;;;;;;;;;17.00;10.33;;;;;22.40;52.47;101261.13;5061032;28;45349;-89
2021/08/15 04:04:17;;;;;;;;;12.33;8.33;;;;;22.39;52.27;101267.41;5059928;28;48507;-91
2021/08/15 04:06:43;;;;;;;;;13.33;12.67;;;;;22.36;52.60;101262.13;5061919;28;45314;-90
2021/08/15 04:09:09;;;;;;;;;15.00;12.00;;;;;22.31;52.55;101254.19;5061172;28;45431;-91
2021/08/15 04:11:34;;;;;;;;;15.67;14.00;;;;;22.32;52.27;101262.19;5061702;28;45468;-90
2021/08/15 04:14:00;;;;;;;;;14.67;11.67;;;;;22.34;52.66;101262.16;5060517;28;46487;-91
2021/08/15 04:16:26;;;;;;;;;13.00;11.00;;;;;22.31;52.57;101265.81;5061097;28;45349;-90
2021/08/15 04:18:51;;;;;;;;;14.00;12.33;;;;;22.31;52.51;101267.59;5059808;28;45240;-91
2021/08/15 04:21:16;;;;;;;;;13.67;10.00;;;;;22.25;53.02;101252.53;5061020;28;45408;-90
2021/08/15 04:23:42;;;;;;;;;13.67;13.00;;;;;22.27;52.86;101256.03;5059060;28;46545;-91
2021/08/15 04:26:07;;;;;;;;;12.33;11.00;;;;;22.25;52.96;101252.53;5061042;28;45378;-90
2021/08/15 04:28:32;;;;;;;;;12.00;12.00;;;;;22.19;53.16;101241.97;5060915;28;45422;-88
2021/08/15 04:30:58;;;;;;;;;12.00;12.00;;;;;22.17;53.18;101247.34;5060179;28;45199;-90
2021/08/15 04:33:24;;;;;;;;;13.67;12.33;;;;;22.13;52.92;101245.66;5061018;28;45821;-91
2021/08/15 04:35:51;;;;;;;;;15.00;12.67;;;;;22.01;52.81;101228.09;5060772;28;45238;-92
2021/08/15 04:38:17;;;;;;;;;15.33;12.00;;;;;22.08;53.15;101242.22;5060544;28;45449;-91
2021/08/15 04:40:42;;;;;;;;;15.00;13.67;;;;;22.09;53.10;101250.22;5060703;28;45438;-90
2021/08/15 04:43:07;;;;;;;;;12.00;10.00;;;;;22.06;53.31;101244.06;5060916;28;45993;-92
2021/08/15 04:45:34;;;;;;;;;13.67;11.00;;;;;22.05;53.42;101245.84;5061187;28;45410;-91
2021/08/15 04:47:59;;;;;;;;;12.00;12.00;;;;;22.01;53.16;101240.59;5058985;28;45395;-88
2021/08/15 04:50:24;;;;;;;;;13.33;13.00;;;;;21.97;53.20;101242.47;5058959;28;45386;-90
2021/08/15 04:52:50;;;;;;;;;10.33;9.67;;;;;21.94;53.40;101235.38;5059395;28;48204;-91
2021/08/15 04:55:15;;;;;;;;;14.67;13.67;;;;;21.88;53.77;101226.59;5060503;28;45390;-89
2021/08/15 04:57:41;;;;;;;;;13.67;12.00;;;;;21.86;54.03;101227.53;5060179;28;45401;-91
2021/08/15 05:00:06;;;;;;;;;12.33;11.33;;;;;21.86;53.81;101232.88;5060419;28;45371;-91
2021/08/15 05:02:32;;;;;;;;;13.67;9.00;;;;;21.89;53.80;101239.97;5060341;28;45783;-91
2021/08/15 05:04:57;;;;;;;;;11.33;10.00;;;;;21.85;53.82;101228.44;5061768;28;45227;-90
2021/08/15 05:07:22;;;;;;;;;15.00;9.67;;;;;21.82;54.00;101225.81;5060271;28;45397;-90
2021/08/15 05:09:48;;;;;;;;;10.67;10.00;;;;;21.83;54.15;101232.94;5059306;28;45631;-92
2021/08/15 05:12:13;;;;;;;;;11.00;10.00;;;;;21.82;54.24;101236.50;5060098;28;45404;-90
2021/08/15 05:14:39;;;;;;;;;14.00;10.33;;;;;21.80;54.18;101245.47;5059929;28;45276;-91
2021/08/15 05:17:06;;;;;;;;;11.33;11.00;;;;;21.79;54.37;101252.63;5060475;28;45243;-91
2021/08/15 05:19:31;;;;;;;;;13.67;11.00;;;;;21.78;54.42;101236.59;5064174;28;45526;-92
2021/08/15 05:21:57;;;;;;;;;13.67;11.00;;;;;21.77;54.50;101237.50;5069095;28;45462;-90
2021/08/15 05:24:22;;;;;;;;;9.33;9.00;;;;;21.70;54.91;101231.44;5068688;28;45620;-91
2021/08/15 05:26:48;;;;;;;;;8.00;8.00;;;;;21.75;54.59;101235.75;5065909;28;45311;-91
2021/08/15 05:29:13;;;;;;;;;12.67;11.00;;;;;21.71;54.78;101235.84;5064521;28;45391;-90
2021/08/15 05:31:38;;;;;;;;;12.00;11.00;;;;;21.75;54.73;101245.56;5060509;28;45429;-91
2021/08/15 05:34:04;;;;;;;;;12.67;10.00;;;;;21.67;54.67;101228.81;5060930;28;45423;-91
2021/08/15 05:36:29;;;;;;;;;11.00;10.33;;;;;21.66;54.72;101229.72;5059691;28;45382;-91
2021/08/15 05:38:54;;;;;;;;;12.67;10.67;;;;;21.68;54.64;101235.94;5059740;28;45402;-89
2021/08/15 05:41:20;;;;;;;;;10.33;9.00;;;;;21.58;55.04;101221.84;5060967;28;45341;-92
2021/08/15 05:43:45;;;;;;;;;14.00;10.67;;;;;21.66;55.15;101227.91;5063873;28;45245;-93
2021/08/15 05:46:11;;;;;;;;;15.00;10.00;;;;;21.65;54.64;101228.84;5062873;28;45382;-93
2021/08/15 05:48:36;;;;;;;;;10.67;9.67;;;;;21.61;54.96;101221.81;5062926;28;45454;-91
2021/08/15 05:51:03;;;;;;;;;12.00;11.00;;;;;21.61;55.04;101219.13;5063068;28;45894;-92
2021/08/15 05:53:29;;;;;;;;;11.67;9.00;;;;;21.63;54.97;101231.56;5062428;28;45824;-91
2021/08/15 05:55:54;;;;;;;;;16.00;11.33;;;;;21.64;55.06;101227.97;5064761;28;45412;-91
2021/08/15 05:58:20;;;;;;;;;13.00;11.00;;;;;21.61;55.48;101230.72;5063956;28;45132;-90
2021/08/15 06:00:48;;;;;;;;;11.33;10.00;;;;;21.60;55.22;101230.72;5063757;28;45457;-92
2021/08/15 06:03:13;;;;;;;;;14.00;10.00;;;;;21.61;55.33;101237.84;5063147;28;45385;-93
2021/08/15 06:05:39;;;;;;;;;14.00;11.33;;;;;21.61;55.44;101237.84;5064946;28;46088;-92
2021/08/15 06:08:04;;;;;;;;;10.00;8.00;;;;;21.52;55.37;101222.88;5065252;28;45319;-91
2021/08/15 06:10:30;;;;;;;;;13.00;9.67;;;;;21.58;55.90;101229.88;5068197;28;45438;-90
2021/08/15 06:12:55;;;;;;;;;14.33;12.33;;;;;21.59;55.59;101227.19;5071687;28;45233;-90
2021/08/15 06:15:20;;;;;;;;;11.33;9.00;;;;;21.60;55.67;101222.69;5072691;28;45372;-91
2021/08/15 06:17:46;;;;;;;;;12.00;10.33;;;;;21.60;55.84;101228.03;5072301;28;45236;-90
2021/08/15 06:20:12;;;;;;;;;10.00;9.00;;;;;21.66;56.00;101235.94;5065510;28;45410;-92
2021/08/15 06:22:43;;;;;;;;;12.00;11.00;;;;;21.67;56.26;101244.84;5065755;28;45211;-91
2021/08/15 06:25:10;;;;;;;;;12.33;11.00;;;;;21.61;55.83;101230.72;5072670;28;44697;-92
2021/08/15 06:27:37;;;;;;;;;12.33;10.33;;;;;21.67;55.87;101236.81;5077749;28;45256;-90
2021/08/15 06:30:03;;;;;;;;;13.33;9.33;;;;;21.72;55.85;101246.50;5082333;28;46142;-90
2021/08/15 06:32:29;;;;;;;;;13.33;10.33;;;;;21.66;55.54;101229.72;5085131;28;44657;-87
2021/08/15 06:34:54;;;;;;;;;14.33;10.00;;;;;21.69;55.88;101235.00;5087103;28;44645;-87
2021/08/15 06:37:20;;;;;;;;;14.33;12.33;;;;;21.68;55.96;101234.13;5087944;28;44814;-86
2021/08/15 06:39:45;;;;;;;;;11.00;10.33;;;;;21.71;55.77;101234.06;5087466;28;44999;-87
2021/08/15 06:42:10;;;;;;;;;9.33;9.33;;;;;21.68;55.53;101228.75;5087023;28;44694;-86
2021/08/15 06:44:37;;;;;;;;;11.33;9.00;;;;;21.75;55.93;101237.53;5086303;28;44848;-85
2021/08/15 06:47:04;;;;;;;;;11.67;10.67;;;;;21.76;56.31;101233.97;5087258;28;44780;-90
2021/08/15 06:49:31;;;;;;;;;12.00;9.00;;;;;21.79;55.66;101223.19;5084788;28;47195;-89
2021/08/15 06:51:56;;;;;;;;;12.33;10.00;;;;;21.86;55.96;101226.66;5084009;28;44772;-88
2021/08/15 06:54:22;;;;;;;;;10.67;9.67;;;;;21.83;55.90;101226.66;5085183;28;45291;-88
2021/08/15 06:56:48;;;;;;;;;11.33;10.00;;;;;21.89;55.59;101226.59;5087610;28;45202;-85
2021/08/15 06:59:13;;;;;;;;;13.00;9.33;;;;;21.92;55.49;101234.53;5087228;28;45043;-88
2021/08/15 07:01:39;;;;;;;;;11.67;9.00;;;;;21.94;55.41;101234.50;5086433;28;44805;-89
2021/08/15 07:04:04;;;;;;;;;14.67;11.00;;;;;21.96;55.69;101229.97;5088647;28;44783;-87
2021/08/15 07:06:30;;;;;;;;;8.67;8.67;;;;;21.98;55.30;101231.72;5084146;28;44773;-90
2021/08/15 07:08:55;;;;;;;;;11.00;8.33;;;;;22.00;55.49;101229.00;5084922;28;45245;-86
2021/08/15 07:11:21;;;;;;;;;10.33;9.67;;;;;21.99;55.36;101224.56;5087770;28;44805;-89
2021/08/15 07:13:46;;;;;;;;;12.33;11.00;;;;;22.06;56.06;101238.72;5087945;28;44894;-88
2021/08/15 07:16:11;;;;;;;;;13.67;12.67;;;;;22.10;55.73;101246.59;5088386;28;44764;-86
2021/08/15 07:18:37;;;;;;;;;10.67;10.00;;;;;22.12;55.85;101251.06;5086229;28;45543;-89
2021/08/15 07:21:02;;;;;;;;;17.33;11.33;;;;;22.09;56.01;101228.81;5079341;28;45382;-91
2021/08/15 07:23:28;;;;;;;;;16.67;10.67;;;;;22.16;55.55;101234.91;5064559;28;45374;-90
2021/08/15 07:25:54;;;;;;;;;12.67;8.67;;;;;22.14;55.62;101233.16;5065578;28;45441;-91
2021/08/15 07:28:19;;;;;;;;;12.00;10.00;;;;;22.24;55.68;101239.19;5064872;28;45343;-91
2021/08/15 07:30:44;;;;;;;;;11.67;9.00;;;;;22.25;56.05;101244.50;5063643;28;45476;-91
2021/08/15 07:33:10;;;;;;;;;11.67;9.67;;;;;22.31;55.94;101243.47;5063648;28;45410;-90
2021/08/15 07:35:37;;;;;;;;;11.33;11.33;;;;;22.33;55.70;101242.53;5064720;28;45413;-92
2021/08/15 07:38:04;;;;;;;;;11.33;10.33;;;;;22.36;56.06;101240.69;5062042;28;45473;-87
2021/08/15 07:40:30;;;;;;;;;11.33;10.33;;;;;22.42;55.50;101235.19;5059251;28;45227;-76
2021/08/15 07:42:56;;;;;;;;;9.00;7.67;;;;;22.43;55.60;101235.16;5057341;28;45355;-76
2021/08/15 07:45:26;;;;;;;;;13.33;11.00;;;;;22.49;55.25;101234.13;5058054;28;45255;-77
2021/08/15 07:47:51;;;;;;;;;14.33;11.00;;;;;22.53;55.04;101230.44;5057891;28;46145;-78
2021/08/15 07:50:17;;;;;;;;;13.00;12.00;;;;;22.57;55.21;101233.91;5057553;28;45377;-77
2021/08/15 07:52:43;;;;;;;;;14.00;12.00;;;;;22.61;54.87;101234.75;5058095;28;45386;-78
2021/08/15 07:55:09;;;;;;;;;12.67;10.00;;;;;22.65;55.84;101236.41;5057859;28;45462;-78
2021/08/15 07:57:34;;;;;;;;;12.33;11.00;;;;;22.69;54.64;101238.13;5057433;28;47142;-78
2021/08/15 08:00:00;;;;;;;;;12.00;11.00;;;;;22.74;55.21;101238.00;5057791;28;45347;-78
2021/08/15 08:02:25;;;;;;;;;11.00;9.67;;;;;22.77;54.63;101229.88;5057776;28;45476;-77
2021/08/15 08:04:51;;;;;;;;;12.33;10.00;;;;;22.81;55.33;101231.56;5058067;28;45231;-77
2021/08/15 08:07:22;;;;;;;;;11.00;9.67;;;;;22.86;55.35;101223.41;5057579;28;45469;-77
2021/08/15 08:09:48;;;;;;;;;11.00;11.00;;;;;22.90;55.01;101225.09;5057506;28;45345;-77
2021/08/15 08:12:15;;;;;;;;;13.00;10.67;;;;;22.94;55.18;101224.09;5057581;28;45324;-77
2021/08/15 08:14:40;;;;;;;;;12.00;9.67;;;;;23.00;55.22;101217.66;5057282;28;45260;-77
2021/08/15 08:17:07;;;;;;;;;13.67;12.00;;;;;23.04;55.85;101222.03;5057222;28;45395;-77
2021/08/15 08:19:32;;;;;;;;;12.33;10.67;;;;;23.07;55.03;101213.91;5057316;28;45360;-77
2021/08/15 08:21:58;;;;;;;;;18.00;12.67;;;;;23.14;54.72;101228.88;5057463;28;45358;-77
2021/08/15 08:24:24;;;;;;;;;12.33;11.33;;;;;23.17;55.56;101209.16;5057717;28;45408;-76
2021/08/15 08:26:49;;;;;;;;;11.67;11.00;;;;;23.24;55.25;101220.59;5057262;28;46130;-76
2021/08/15 08:29:14;;;;;;;;;11.00;10.33;;;;;23.30;55.45;101211.50;5057103;28;45504;-77
2021/08/15 08:31:40;;;;;;;;;13.67;10.00;;;;;23.34;53.92;101207.78;5057310;28;45616;-78
2021/08/15 08:34:05;;;;;;;;;12.67;11.00;;;;;23.42;54.16;101212.94;5057241;28;45459;-77
2021/08/15 08:36:30;;;;;;;;;9.33;8.67;;;;;23.49;54.57;101209.19;5056932;28;47123;-78
2021/08/15 08:38:56;;;;;;;;;10.33;10.33;;;;;23.57;54.95;101215.19;5060134;28;45326;-85
2021/08/15 08:41:21;;;;;;;;;13.00;12.67;;;;;23.67;55.03;101215.78;5063731;28;45692;-87
2021/08/15 08:43:48;;;;;;;;;12.33;10.00;;;;;23.73;54.91;101203.13;5062927;28;45272;-87
2021/08/15 08:46:15;;;;;;;;;11.67;11.33;;;;;23.93;56.03;101202.50;5068935;28;45314;-88
2021/08/15 08:48:40;;;;;;;;;10.33;10.33;;;;;24.09;55.10;101204.72;5060274;28;45240;-88
2021/08/15 08:51:07;;;;;;;;;13.67;11.33;;;;;24.32;56.04;101209.38;5060431;28;45325;-88
2021/08/15 08:53:35;;;;;;;;;11.00;10.33;;;;;24.50;55.16;101207.88;5060508;28;45361;-87
2021/08/15 08:56:00;;;;;;;;;13.00;10.00;;;;;24.61;54.97;101196.75;5058451;28;47390;-87
2021/08/15 08:58:26;;;;;;;;;11.00;11.00;;;;;24.89;54.84;101196.69;5062409;28;45437;-87
2021/08/15 09:00:51;;;;;;;;;12.67;11.00;;;;;25.18;54.37;101195.69;5063356;28;45543;-86
2021/08/15 09:03:17;;;;;;;;;11.67;11.00;;;;;25.55;53.77;101208.69;5064254;28;45239;-88
2021/08/15 09:05:54;;;;;;;;;10.33;10.00;;;;;25.91;52.91;101191.19;5064918;28;46153;-88
2021/08/15 09:08:33;;;;;;;;;17.00;12.00;;;;;26.34;52.36;101195.72;5065604;28;45231;-86
2021/08/15 09:11:20;;;;;;;;;11.67;10.33;;;;;26.78;51.47;101193.91;5062031;28;45373;-85
2021/08/15 09:14:03;;;;;;;;;13.67;10.67;;;;;27.18;50.92;101185.84;5061115;28;45005;-88
2021/08/15 09:17:02;;;;;;;;;15.00;11.33;;;;;27.60;50.01;101189.31;5060741;28;45936;-87
2021/08/15 09:19:47;;;;;;;;;10.67;10.67;;;;;28.02;48.95;101180.19;5060519;28;45419;-82
2021/08/15 09:22:17;;;;;;;;;12.00;9.67;;;;;28.35;48.72;101176.72;5058777;28;45425;-86
2021/08/15 09:24:56;;;;;;;;;14.67;13.00;;;;;28.69;47.99;101170.56;5058804;28;45512;-90
2021/08/15 09:27:24;;;;;;;;;12.00;12.00;;;;;29.01;47.69;101173.38;5059004;28;46155;-88
2021/08/15 09:30:29;;;;;;;;;10.67;10.00;;;;;29.38;46.86;101172.34;5059514;28;45446;-87
2021/08/15 09:33:09;;;;;;;;;11.00;11.00;;;;;29.67;46.30;101164.44;5017831;28;45340;-82
2021/08/15 09:35:34;;;;;;;;;11.67;11.67;;;;;30.01;46.04;101172.44;5018671;28;45406;-87
2021/08/15 09:38:14;;;;;;;;;11.33;11.33;;;;;30.30;45.12;101175.31;5020698;28;45406;-86
2021/08/15 09:40:43;;;;;;;;;12.67;12.00;;;;;30.57;44.54;101166.47;5018262;28;45355;-87
2021/08/15 09:43:30;;;;;;;;;13.00;10.00;;;;;30.85;44.18;101162.06;5017259;28;45340;-88
2021/08/15 09:45:58;;;;;;;;;11.67;11.67;;;;;31.21;44.10;101164.41;5017154;28;45491;-88
2021/08/15 09:48:28;;;;;;;;;10.67;9.67;;;;;31.47;42.96;101167.31;5016825;28;45416;-84
2021/08/15 09:51:08;;;;;;;;;12.00;12.00;;;;;31.73;41.96;101164.72;5016573;28;45406;-87
2021/08/15 09:53:35;;;;;;;;;15.33;13.67;;;;;31.98;42.71;101160.34;5020343;28;45428;-87
2021/08/15 09:56:03;;;;;;;;;13.33;13.33;;;;;32.29;41.11;101171.03;5023171;28;45198;-87
2021/08/15 09:58:29;;;;;;;;;13.67;11.33;;;;;32.54;42.02;101158.44;5023998;28;46289;-86
2021/08/15 10:00:55;;;;;;;;;13.67;12.33;;;;;32.77;41.12;101155.09;5001804;28;45918;-83
2021/08/15 10:03:21;;;;;;;;;14.33;11.67;;;;;33.00;40.18;101166.19;5032511;28;45609;-88
2021/08/15 10:05:47;;;;;;;;;13.33;12.00;;;;;33.26;39.60;101156.19;5058906;28;45390;-88
2021/08/15 10:08:14;;;;;;;;;14.00;11.00;;;;;33.50;40.25;101154.50;5058412;28;45392;-89
2021/08/15 10:10:39;;;;;;;;;14.00;12.00;;;;;33.71;39.91;101141.16;5058629;28;45351;-88
2021/08/15 10:13:05;;;;;;;;;10.33;10.00;;;;;33.97;38.93;101159.25;5057804;28;45397;-87
2021/08/15 10:15:33;;;;;;;;;10.00;10.00;;;;;34.18;38.61;101156.69;5058372;28;45302;-88
2021/08/15 10:18:02;;;;;;;;;12.33;10.33;;;;;34.31;38.16;101151.19;5058636;28;46128;-86
2021/08/15 10:20:29;;;;;;;;;12.33;11.00;;;;;34.47;38.68;101150.00;5058845;28;45516;-88
2021/08/15 10:23:12;;;;;;;;;12.67;12.33;;;;;34.63;37.77;101148.78;5059623;28;45303;-82
2021/08/15 10:25:46;;;;;;;;;9.00;9.00;;;;;34.76;36.98;101146.81;5066785;28;45445;-86
2021/08/15 10:28:38;;;;;;;;;9.00;9.00;;;;;34.93;37.00;101141.00;5066269;28;47268;-87
2021/08/15 10:31:04;;;;;;;;;10.33;10.00;;;;;35.07;36.34;101142.63;5060126;28;45371;-87
2021/08/15 10:33:31;;;;;;;;;8.67;8.00;;;;;35.27;36.00;101134.66;5061942;28;45384;-87
2021/08/15 10:36:18;;;;;;;;;10.67;8.67;;;;;35.52;35.40;101132.66;5062108;28;45315;-87
2021/08/15 10:38:45;;;;;;;;;7.67;7.67;;;;;35.69;34.23;101123.91;5060977;28;46159;-87
2021/08/15 10:41:11;;;;;;;;;8.67;8.33;;;;;35.88;34.88;101124.22;5061257;28;45367;-84
2021/08/15 10:43:36;;;;;;;;;7.33;7.33;;;;;36.04;33.77;101121.06;5060383;28;45322;-86
2021/08/15 10:46:10;;;;;;;;;7.67;7.67;;;;;36.14;33.37;101116.53;5061160;28;45306;-86
2021/08/15 10:48:59;;;;;;;;;7.67;7.67;;;;;36.15;32.61;101115.50;5060845;28;46180;-86
2021/08/15 10:51:47;;;;;;;;;11.33;8.67;;;;;36.23;33.79;101117.59;5061956;28;45840;-87
2021/08/15 10:54:27;;;;;;;;;10.33;9.33;;;;;36.34;33.17;101104.88;5059572;28;45296;-86
2021/08/15 10:56:59;;;;;;;;;8.33;8.33;;;;;36.44;32.26;101104.94;5062320;28;45809;-87
2021/08/15 10:59:41;;;;;;;;;9.67;8.00;;;;;36.52;33.41;101096.91;5060824;28;46360;-84
2021/08/15 11:02:13;;;;;;;;;8.33;8.00;;;;;36.45;32.10;101101.19;5061539;28;44848;-87
2021/08/15 11:04:40;;;;;;;;;8.33;8.33;;;;;36.49;32.82;101099.91;5061234;28;45338;-88
2021/08/15 11:07:06;;;;;;;;;7.67;7.33;;;;;36.56;33.05;101095.63;5061340;28;45320;-88
2021/08/15 11:09:57;;;;;;;;;8.00;8.00;;;;;36.70;32.85;101093.53;5061095;28;46240;-89
2021/08/15 11:12:24;;;;;;;;;8.33;8.33;;;;;36.75;30.53;101096.72;5060713;28;45326;-88